Time;durP1;ratioP1;P1;durP2;ratioP2;P2;SDS_P1;SDS_P2;PMS_P1;PMS_P2;Temp;Humidity;BMP_temperature;BMP_pressure;BME280_temperature;BME280_humidity;BME280_pressure;Samples;Min_cycle;Max_cycle;Signal;HPM_P1;HPM_P2
2020/12/15 00:02:12;;;;;;;13.43;5.30;;;3.90;99.90;;;;;;1897802;74;21144;-73
2020/12/15 00:04:38;;;;;;;11.25;5.12;;;3.90;99.90;;;;;;1891742;74;21086;-73
2020/12/15 00:07:04;;;;;;;8.93;5.25;;;3.90;99.90;;;;;;1887540;74;21055;-73
2020/12/15 00:09:30;;;;;;;10.43;4.60;;;3.90;99.90;;;;;;1902577;74;21139;-73
2020/12/15 00:11:57;;;;;;;6.53;4.20;;;3.90;99.90;;;;;;1883129;74;21489;-73
2020/12/15 00:14:23;;;;;;;9.10;4.47;;;3.90;99.90;;;;;;1888928;74;21159;-73
2020/12/15 00:16:49;;;;;;;5.35;4.10;;;3.80;99.90;;;;;;1894721;74;21078;-73
2020/12/15 00:19:15;;;;;;;9.05;4.58;;;3.90;99.90;;;;;;1891059;75;21073;-73
2020/12/15 00:21:41;;;;;;;8.60;5.28;;;3.90;99.90;;;;;;1903004;74;21082;-73
2020/12/15 00:24:07;;;;;;;7.17;4.80;;;3.90;99.90;;;;;;1911568;74;21163;-72
2020/12/15 00:26:33;;;;;;;7.87;4.78;;;3.90;99.90;;;;;;1889111;74;21571;-73
2020/12/15 00:28:59;;;;;;;10.58;5.62;;;4.00;99.90;;;;;;1890716;74;21478;-73
2020/12/15 00:31:26;;;;;;;12.63;5.37;;;4.00;99.90;;;;;;1896261;74;21517;-73
2020/12/15 00:33:52;;;;;;;12.33;5.87;;;4.00;99.90;;;;;;1893918;74;21132;-73
2020/12/15 00:36:18;;;;;;;9.80;4.92;;;4.00;99.90;;;;;;1902452;74;21086;-72
2020/12/15 00:38:44;;;;;;;10.35;5.47;;;4.00;99.90;;;;;;1889268;74;21074;-72
2020/12/15 00:41:10;;;;;;;11.00;5.72;;;4.00;99.90;;;;;;1911644;74;21153;-72
2020/12/15 00:43:36;;;;;;;13.40;6.03;;;4.00;99.90;;;;;;1897258;73;21102;-73
2020/12/15 00:46:02;;;;;;;11.03;6.03;;;4.00;99.90;;;;;;1896153;74;21085;-73
2020/12/15 00:48:28;;;;;;;13.48;6.03;;;3.90;99.90;;;;;;1895352;74;21132;-72
2020/12/15 00:50:55;;;;;;;10.78;5.80;;;3.90;99.90;;;;;;1902448;74;21192;-72
2020/12/15 00:53:21;;;;;;;11.03;5.80;;;3.90;99.90;;;;;;1892349;74;21200;-72
2020/12/15 00:55:47;;;;;;;10.18;5.65;;;4.00;99.90;;;;;;1892458;74;21112;-72
2020/12/15 00:58:13;;;;;;;11.93;5.95;;;4.00;99.90;;;;;;1894469;74;21082;-72
2020/12/15 01:00:39;;;;;;;11.35;5.62;;;4.00;99.90;;;;;;1907274;74;21156;-72
2020/12/15 01:03:05;;;;;;;12.18;5.83;;;4.00;99.90;;;;;;1906172;74;21152;-72
2020/12/15 01:05:31;;;;;;;10.98;5.85;;;3.90;99.90;;;;;;1909765;74;21081;-73
2020/12/15 01:07:57;;;;;;;11.08;5.67;;;4.00;99.90;;;;;;1899795;74;21428;-72
2020/12/15 01:10:24;;;;;;;10.53;5.83;;;4.00;99.90;;;;;;1900871;74;21533;-72
2020/12/15 01:12:50;;;;;;;10.05;5.72;;;4.00;99.90;;;;;;1912636;74;21477;-72
2020/12/15 01:15:18;;;;;;;10.93;5.97;;;4.10;99.90;;;;;;1910855;74;21156;-72
2020/12/15 01:17:44;;;;;;;10.65;5.20;;;4.10;99.90;;;;;;1902047;73;21110;-73
2020/12/15 01:20:10;;;;;;;11.43;5.75;;;4.10;99.90;;;;;;1891240;74;21509;-73
2020/12/15 01:22:36;;;;;;;14.38;5.50;;;4.00;99.90;;;;;;1894774;74;21483;-72
2020/12/15 01:25:02;;;;;;;11.60;5.78;;;4.00;99.90;;;;;;1894058;74;21521;-72
2020/12/15 01:27:28;;;;;;;12.33;5.87;;;4.00;99.90;;;;;;1884798;74;21506;-73
2020/12/15 01:29:54;;;;;;;9.78;5.30;;;4.10;99.90;;;;;;1896920;74;21078;-72
2020/12/15 01:32:20;;;;;;;11.85;5.83;;;4.10;99.90;;;;;;1909424;74;21086;-72
2020/12/15 01:34:46;;;;;;;11.63;5.72;;;4.10;99.90;;;;;;1902921;74;21179;-73
2020/12/15 01:37:12;;;;;;;12.95;5.60;;;4.00;99.90;;;;;;1894067;74;21048;-73
2020/12/15 01:39:39;;;;;;;8.15;5.15;;;4.10;99.90;;;;;;1904468;74;21088;-72
2020/12/15 01:42:07;;;;;;;8.30;4.90;;;4.10;99.90;;;;;;1906211;74;21081;-72
2020/12/15 01:44:33;;;;;;;9.90;5.70;;;4.10;99.90;;;;;;1904978;74;21197;-74
2020/12/15 01:46:59;;;;;;;9.60;5.37;;;4.10;99.90;;;;;;1911210;74;21083;-72
2020/12/15 01:49:25;;;;;;;10.10;5.28;;;4.00;99.90;;;;;;1909940;74;21190;-73
2020/12/15 01:51:51;;;;;;;6.72;4.60;;;4.10;99.90;;;;;;1898826;74;21082;-73
2020/12/15 01:54:17;;;;;;;12.05;5.90;;;4.00;99.90;;;;;;1910859;74;21083;-72
2020/12/15 01:56:43;;;;;;;12.05;5.55;;;4.00;99.90;;;;;;1892869;74;21074;-73
2020/12/15 01:59:09;;;;;;;8.88;5.42;;;3.90;99.90;;;;;;1904123;74;21083;-73
2020/12/15 02:01:35;;;;;;;13.00;5.70;;;4.10;99.90;;;;;;1905500;74;21140;-73
2020/12/15 02:04:01;;;;;;;11.20;5.90;;;4.10;99.90;;;;;;1916204;74;21048;-73
2020/12/15 02:06:28;;;;;;;9.55;5.12;;;4.20;99.90;;;;;;1901381;74;21201;-73
2020/12/15 02:08:54;;;;;;;12.55;6.40;;;4.20;99.90;;;;;;1892311;74;21074;-73
2020/12/15 02:11:20;;;;;;;12.63;5.85;;;4.20;99.90;;;;;;1885484;75;21090;-73
2020/12/15 02:13:46;;;;;;;10.13;6.10;;;4.30;99.90;;;;;;1908844;74;21547;-73
2020/12/15 02:16:12;;;;;;;13.55;6.22;;;4.30;99.90;;;;;;1896666;74;21183;-73
2020/12/15 02:18:38;;;;;;;9.53;5.55;;;4.30;99.90;;;;;;1884823;74;21070;-73
2020/12/15 02:21:04;;;;;;;12.68;6.20;;;4.30;99.90;;;;;;1906129;74;21099;-73
2020/12/15 02:23:30;;;;;;;12.33;5.72;;;4.40;99.90;;;;;;1912793;74;21141;-73
2020/12/15 02:25:57;;;;;;;11.55;5.47;;;4.40;99.90;;;;;;1884812;74;21191;-73
2020/12/15 02:28:23;;;;;;;11.85;5.80;;;4.40;99.90;;;;;;1901221;74;21083;-73
2020/12/15 02:30:49;;;;;;;9.88;4.80;;;4.30;99.90;;;;;;1895810;74;21066;-73
2020/12/15 02:33:15;;;;;;;10.38;5.65;;;4.30;99.90;;;;;;1887093;74;21050;-73
2020/12/15 02:35:41;;;;;;;7.50;4.75;;;4.40;99.90;;;;;;1898293;74;21074;-73
2020/12/15 02:38:07;;;;;;;8.20;4.85;;;4.30;99.90;;;;;;1896882;74;21094;-73
2020/12/15 02:40:33;;;;;;;9.90;6.05;;;4.30;99.90;;;;;;1884787;74;21168;-73
2020/12/15 02:42:59;;;;;;;18.87;5.58;;;4.40;99.90;;;;;;1904971;74;21615;-73
2020/12/15 02:45:26;;;;;;;8.83;5.58;;;4.50;99.90;;;;;;1892842;74;21519;-73
2020/12/15 02:47:52;;;;;;;12.13;4.83;;;4.50;99.90;;;;;;1910097;74;21448;-73
2020/12/15 02:50:18;;;;;;;18.98;5.25;;;4.60;99.90;;;;;;1911382;74;21082;-73
2020/12/15 02:52:44;;;;;;;10.35;4.92;;;4.50;99.90;;;;;;1915484;74;21078;-73
2020/12/15 02:55:10;;;;;;;12.90;5.62;;;4.50;99.90;;;;;;1894682;74;21192;-72
2020/12/15 02:57:36;;;;;;;10.40;5.83;;;4.40;99.90;;;;;;1893873;74;21181;-73
2020/12/15 03:00:02;;;;;;;10.93;5.95;;;4.40;99.90;;;;;;1905821;74;21115;-73
2020/12/15 03:02:28;;;;;;;10.32;5.25;;;4.40;99.90;;;;;;1892211;74;21153;-73
2020/12/15 03:04:55;;;;;;;6.83;5.10;;;4.30;99.90;;;;;;1896844;74;21071;-73
2020/12/15 03:07:21;;;;;;;9.05;5.08;;;4.30;99.90;;;;;;1909076;74;21163;-73
2020/12/15 03:09:47;;;;;;;16.75;7.00;;;4.30;99.90;;;;;;1905037;74;21585;-73
2020/12/15 03:12:13;;;;;;;10.95;6.45;;;4.40;99.90;;;;;;1900864;74;21668;-73
2020/12/15 03:14:39;;;;;;;11.18;6.67;;;4.40;99.90;;;;;;1904571;74;21495;-73
2020/12/15 03:17:05;;;;;;;11.57;6.85;;;4.40;99.90;;;;;;1894316;74;21042;-73
2020/12/15 03:19:31;;;;;;;12.85;6.58;;;4.50;99.90;;;;;;1897693;74;21085;-73
2020/12/15 03:22:06;;;;;;;10.28;6.65;;;4.50;99.90;;;;;;1910214;73;21086;-73
2020/12/15 03:24:32;;;;;;;15.58;6.72;;;4.60;99.90;;;;;;1894052;74;21046;-73
2020/12/15 03:26:58;;;;;;;9.95;5.75;;;4.60;99.90;;;;;;1906786;74;21149;-71
2020/12/15 03:29:25;;;;;;;11.45;5.83;;;4.60;99.90;;;;;;1908109;74;21086;-71
2020/12/15 03:31:51;;;;;;;11.45;6.05;;;4.70;99.90;;;;;;1895505;74;21145;-74
2020/12/15 03:34:17;;;;;;;9.35;6.30;;;4.60;99.90;;;;;;1900508;74;21216;-74
2020/12/15 03:36:43;;;;;;;13.10;5.87;;;4.70;99.90;;;;;;1911241;74;21043;-74
2020/12/15 03:39:09;;;;;;;11.35;5.90;;;4.60;99.90;;;;;;1899129;73;21156;-74
2020/12/15 03:41:35;;;;;;;9.78;5.58;;;4.70;99.90;;;;;;1901205;73;21074;-74
2020/12/15 03:44:01;;;;;;;11.57;6.17;;;4.70;99.90;;;;;;1905811;74;21077;-74
2020/12/15 03:46:27;;;;;;;16.45;6.28;;;4.60;99.90;;;;;;1896604;73;21055;-74
2020/12/15 03:48:53;;;;;;;10.58;5.22;;;4.70;99.90;;;;;;1898078;73;21141;-74
2020/12/15 03:51:20;;;;;;;12.03;6.20;;;4.70;99.90;;;;;;1891328;74;21140;-74
2020/12/15 03:53:46;;;;;;;10.53;5.67;;;4.70;99.90;;;;;;1900118;74;21152;-74
2020/12/15 03:56:12;;;;;;;13.68;5.35;;;4.70;99.90;;;;;;1899915;73;21089;-74
2020/12/15 03:58:38;;;;;;;13.45;4.95;;;4.80;99.90;;;;;;1891108;73;21447;-72
2020/12/15 04:01:04;;;;;;;10.05;4.92;;;4.80;99.90;;;;;;1903649;73;21474;-72
2020/12/15 04:03:30;;;;;;;8.10;5.00;;;4.80;99.90;;;;;;1906861;73;21640;-72
2020/12/15 04:05:56;;;;;;;9.15;4.90;;;4.80;99.90;;;;;;1900243;73;21082;-72
2020/12/15 04:08:22;;;;;;;11.05;5.22;;;4.90;99.90;;;;;;1894531;74;21145;-72
2020/12/15 04:10:52;;;;;;;8.88;4.67;;;4.90;99.90;;;;;;1900050;73;21074;-71
2020/12/15 04:13:18;;;;;;;11.90;5.27;;;4.90;99.90;;;;;;1899736;73;21066;-73
2020/12/15 04:15:44;;;;;;;7.05;4.47;;;4.90;99.90;;;;;;1899776;74;21955;-72
2020/12/15 04:18:10;;;;;;;9.43;4.50;;;4.80;99.90;;;;;;1891435;74;21157;-73
2020/12/15 04:20:36;;;;;;;7.58;4.83;;;4.70;99.90;;;;;;1903186;74;21180;-72
2020/12/15 04:23:03;;;;;;;6.35;4.00;;;4.80;99.90;;;;;;1895211;75;21308;-72
2020/12/15 04:25:29;;;;;;;9.10;4.50;;;4.80;99.90;;;;;;1901815;73;21569;-74
2020/12/15 04:27:55;;;;;;;6.53;4.45;;;4.70;99.90;;;;;;1891564;73;21486;-74
2020/12/15 04:30:21;;;;;;;8.53;4.47;;;4.60;99.90;;;;;;1904927;73;21490;-74
2020/12/15 04:32:47;;;;;;;6.37;4.17;;;4.60;99.90;;;;;;1903242;73;21208;-74
2020/12/15 04:35:13;;;;;;;6.40;3.65;;;4.70;99.90;;;;;;1884237;73;21135;-74
2020/12/15 04:37:39;;;;;;;11.55;4.37;;;4.60;99.90;;;;;;1895248;74;21222;-73
2020/12/15 04:40:05;;;;;;;9.90;4.78;;;4.70;99.90;;;;;;1907203;73;21174;-73
2020/12/15 04:42:32;;;;;;;7.90;4.00;;;4.80;99.90;;;;;;1910106;74;21048;-73
2020/12/15 04:44:58;;;;;;;5.83;3.92;;;4.80;99.90;;;;;;1897916;73;21128;-73
2020/12/15 04:47:24;;;;;;;12.47;4.80;;;4.80;99.90;;;;;;1903906;74;21082;-72
2020/12/15 04:49:50;;;;;;;9.33;4.05;;;4.90;99.90;;;;;;1898051;74;21086;-72
2020/12/15 04:52:16;;;;;;;9.58;4.70;;;4.80;99.90;;;;;;1904082;73;21139;-73
2020/12/15 04:54:42;;;;;;;11.85;4.20;;;4.90;99.90;;;;;;1904746;74;21167;-72
2020/12/15 04:57:08;;;;;;;5.65;3.80;;;4.90;99.90;;;;;;1913444;73;21139;-73
2020/12/15 04:59:36;;;;;;;6.10;4.62;;;4.90;99.90;;;;;;1892657;74;21098;-73
2020/12/15 05:02:04;;;;;;;7.40;3.95;;;4.90;99.90;;;;;;1895485;73;21077;-73
2020/12/15 05:04:30;;;;;;;8.50;3.90;;;4.90;99.90;;;;;;1912335;75;21090;-73
2020/12/15 05:06:56;;;;;;;11.85;3.70;;;5.00;99.90;;;;;;1896852;74;21047;-73
2020/12/15 05:09:22;;;;;;;8.90;4.00;;;5.10;99.90;;;;;;1907904;73;21149;-72
2020/12/15 05:11:50;;;;;;;7.37;4.03;;;5.20;99.90;;;;;;1890293;74;21077;-73
2020/12/15 05:14:16;;;;;;;7.75;3.60;;;5.30;99.90;;;;;;1900893;73;21263;-74
2020/12/15 05:16:42;;;;;;;13.53;4.20;;;5.30;99.90;;;;;;1890137;73;21083;-73
2020/12/15 05:19:08;;;;;;;11.28;4.12;;;5.20;99.90;;;;;;1906651;73;21055;-73
2020/12/15 05:21:34;;;;;;;5.80;3.30;;;5.20;99.90;;;;;;1912091;74;21078;-73
2020/12/15 05:24:01;;;;;;;9.88;4.05;;;5.10;99.90;;;;;;1891064;73;21082;-73
2020/12/15 05:26:27;;;;;;;7.15;3.72;;;5.10;99.90;;;;;;1885818;73;21185;-73
2020/12/15 05:28:53;;;;;;;12.35;3.95;;;5.10;99.90;;;;;;1898575;74;21085;-73
2020/12/15 05:31:20;;;;;;;6.62;4.08;;;5.00;99.90;;;;;;1885147;73;21047;-73
2020/12/15 05:33:46;;;;;;;4.90;3.25;;;5.00;99.90;;;;;;1901575;74;21090;-73
2020/12/15 05:36:12;;;;;;;12.78;3.90;;;5.00;99.90;;;;;;1901118;73;21148;-73
2020/12/15 05:38:38;;;;;;;8.45;3.50;;;4.90;99.90;;;;;;1897341;73;21085;-73
2020/12/15 05:41:04;;;;;;;4.60;3.20;;;5.00;99.90;;;;;;1902226;74;21148;-73
2020/12/15 05:43:30;;;;;;;6.25;3.90;;;5.00;99.90;;;;;;1906889;73;21209;-73
2020/12/15 05:45:56;;;;;;;6.95;3.42;;;5.00;99.90;;;;;;1884357;73;21042;-73
2020/12/15 05:48:22;;;;;;;5.60;3.58;;;4.90;99.90;;;;;;1900788;73;21087;-73
2020/12/15 05:50:48;;;;;;;6.22;3.52;;;4.80;99.90;;;;;;1902161;73;21082;-73
2020/12/15 05:53:15;;;;;;;5.40;3.42;;;4.90;99.90;;;;;;1903159;73;21089;-72
2020/12/15 05:55:41;;;;;;;6.30;3.70;;;5.00;99.90;;;;;;1901714;73;21738;-73
2020/12/15 05:58:07;;;;;;;6.92;3.98;;;4.90;99.90;;;;;;1903263;73;21486;-73
2020/12/15 06:00:33;;;;;;;7.08;4.30;;;4.90;99.90;;;;;;1895840;74;21098;-72
2020/12/15 06:02:59;;;;;;;5.62;3.70;;;4.90;99.90;;;;;;1901786;73;21048;-72
2020/12/15 06:05:25;;;;;;;6.70;4.22;;;4.90;99.90;;;;;;1898443;73;21148;-72
2020/12/15 06:07:52;;;;;;;6.12;3.85;;;4.90;99.90;;;;;;1895576;73;21069;-72
2020/12/15 06:10:18;;;;;;;7.22;4.00;;;5.00;99.90;;;;;;1887269;73;21083;-72
2020/12/15 06:12:44;;;;;;;7.78;3.98;;;5.00;99.90;;;;;;1908082;74;21144;-73
2020/12/15 06:15:10;;;;;;;6.25;3.60;;;5.00;99.90;;;;;;1897103;74;21193;-73
2020/12/15 06:17:36;;;;;;;7.65;4.10;;;5.10;99.90;;;;;;1901623;73;21080;-73
2020/12/15 06:20:03;;;;;;;5.40;3.35;;;5.10;99.90;;;;;;1901792;74;21050;-72
2020/12/15 06:22:29;;;;;;;4.72;3.17;;;5.10;99.90;;;;;;1899949;73;21067;-72
2020/12/15 06:24:55;;;;;;;6.62;4.10;;;5.20;99.90;;;;;;1897177;73;21165;-74
2020/12/15 06:27:21;;;;;;;5.62;3.50;;;5.20;99.90;;;;;;1909853;73;21141;-78
2020/12/15 06:29:47;;;;;;;6.75;3.80;;;5.20;99.90;;;;;;1904162;73;21490;-70
2020/12/15 06:32:13;;;;;;;8.50;4.05;;;5.20;99.90;;;;;;1897624;73;21501;-73
2020/12/15 06:34:41;;;;;;;8.60;4.12;;;5.30;99.90;;;;;;1897962;73;21494;-72
2020/12/15 06:37:07;;;;;;;6.35;3.60;;;5.30;99.90;;;;;;1911189;73;21125;-71
2020/12/15 06:39:33;;;;;;;5.72;3.58;;;5.30;99.90;;;;;;1910788;74;21077;-73
2020/12/15 06:41:59;;;;;;;7.53;4.05;;;5.30;99.90;;;;;;1890309;73;21081;-73
2020/12/15 06:44:26;;;;;;;5.22;3.50;;;5.30;99.90;;;;;;1884787;73;21485;-73
2020/12/15 06:46:52;;;;;;;9.88;4.60;;;5.30;99.90;;;;;;1890330;73;21559;-72
2020/12/15 06:49:18;;;;;;;7.45;3.95;;;5.30;99.90;;;;;;1900546;73;21577;-73
2020/12/15 06:51:44;;;;;;;5.55;3.52;;;5.40;99.90;;;;;;1899222;73;21448;-73
2020/12/15 06:54:10;;;;;;;5.97;3.40;;;5.40;99.90;;;;;;1913528;73;21075;-73
2020/12/15 06:56:37;;;;;;;10.45;3.77;;;5.40;99.90;;;;;;1893617;73;21089;-72
2020/12/15 06:59:03;;;;;;;9.83;4.05;;;5.40;99.90;;;;;;1897689;73;21133;-72
2020/12/15 07:01:29;;;;;;;9.30;4.20;;;5.40;99.90;;;;;;1904086;73;21207;-73
2020/12/15 07:03:56;;;;;;;7.75;3.98;;;5.40;99.90;;;;;;1899743;73;21466;-73
2020/12/15 07:06:22;;;;;;;7.10;3.58;;;5.50;99.90;;;;;;1886640;74;21486;-73
2020/12/15 07:08:48;;;;;;;5.00;3.50;;;5.40;99.90;;;;;;1880968;73;21766;-72
2020/12/15 07:11:14;;;;;;;7.60;3.85;;;5.40;99.90;;;;;;1904738;73;21474;-73
2020/12/15 07:13:40;;;;;;;5.90;3.50;;;5.50;99.90;;;;;;1893339;73;21139;-73
2020/12/15 07:16:06;;;;;;;5.40;3.45;;;5.50;99.90;;;;;;1894884;73;21077;-73
2020/12/15 07:18:32;;;;;;;7.45;3.92;;;5.50;99.90;;;;;;1903095;73;21148;-73
2020/12/15 07:20:58;;;;;;;3.85;2.95;;;5.50;99.90;;;;;;1895231;73;21047;-73
2020/12/15 07:23:24;;;;;;;7.08;3.70;;;5.50;99.90;;;;;;1903826;73;21078;-73
2020/12/15 07:25:51;;;;;;;10.40;3.95;;;5.50;99.90;;;;;;1901015;74;21077;-73
2020/12/15 07:28:17;;;;;;;8.15;3.55;;;5.50;99.90;;;;;;1884619;73;21069;-73
2020/12/15 07:30:43;;;;;;;5.67;3.33;;;5.50;99.90;;;;;;1891848;73;21083;-73
2020/12/15 07:33:09;;;;;;;10.18;4.12;;;5.50;99.90;;;;;;1887815;73;21088;-74
2020/12/15 07:35:35;;;;;;;6.22;3.40;;;5.40;99.90;;;;;;1902638;73;21229;-73
2020/12/15 07:38:01;;;;;;;6.90;4.20;;;5.40;99.90;;;;;;1894671;74;21073;-73
2020/12/15 07:40:32;;;;;;;4.75;3.45;;;5.40;99.90;;;;;;1892655;74;21090;-73
2020/12/15 07:42:58;;;;;;;6.08;3.80;;;5.50;99.90;;;;;;1910951;73;21184;-73
2020/12/15 07:45:24;;;;;;;18.12;4.42;;;5.70;99.90;;;;;;1890025;74;21595;-73
2020/12/15 07:47:50;;;;;;;11.30;3.22;;;5.70;99.90;;;;;;1887395;73;21481;-73
2020/12/15 07:50:16;;;;;;;14.10;4.60;;;5.70;99.90;;;;;;1912313;73;21565;-73
2020/12/15 07:52:42;;;;;;;6.15;3.58;;;5.60;99.90;;;;;;1893394;74;21081;-71
2020/12/15 07:55:08;;;;;;;4.78;3.47;;;5.60;99.90;;;;;;1904419;73;21137;-71
2020/12/15 07:57:35;;;;;;;9.28;3.95;;;5.70;99.90;;;;;;1908192;73;21079;-70
2020/12/15 08:00:01;;;;;;;6.00;3.83;;;5.70;99.90;;;;;;1891272;73;21189;-69
2020/12/15 08:02:27;;;;;;;6.37;3.55;;;5.70;99.90;;;;;;1898650;74;21078;-71
2020/12/15 08:04:53;;;;;;;7.62;4.25;;;5.70;99.90;;;;;;1902206;73;21129;-71
2020/12/15 08:07:19;;;;;;;8.38;4.40;;;5.70;99.90;;;;;;1902281;73;21081;-71
2020/12/15 08:09:45;;;;;;;7.10;4.00;;;5.70;99.90;;;;;;1905461;73;21098;-71
2020/12/15 08:12:11;;;;;;;7.25;4.08;;;5.80;99.90;;;;;;1909721;73;21510;-71
2020/12/15 08:14:37;;;;;;;5.78;3.02;;;5.80;99.90;;;;;;1892457;73;21446;-71
2020/12/15 08:17:03;;;;;;;11.48;3.92;;;5.80;99.90;;;;;;1892968;73;21517;-75
2020/12/15 08:19:30;;;;;;;5.92;3.58;;;5.90;99.90;;;;;;1915364;73;21504;-72
2020/12/15 08:21:56;;;;;;;8.25;3.67;;;5.90;99.90;;;;;;1899997;74;21086;-72
2020/12/15 08:24:26;;;;;;;9.13;4.03;;;6.00;99.90;;;;;;1902662;74;21191;-72
2020/12/15 08:26:50;;;;;;;7.65;4.22;;;6.00;99.90;;;;;;1898906;73;21499;-72
2020/12/15 08:29:16;;;;;;;11.43;4.25;;;6.00;99.90;;;;;;1898994;73;21514;-71
2020/12/15 08:31:42;;;;;;;5.37;3.67;;;5.90;99.90;;;;;;1910617;73;21570;-72
2020/12/15 08:34:08;;;;;;;8.58;3.35;;;6.00;99.90;;;;;;1899686;73;21518;-71
2020/12/15 08:36:34;;;;;;;11.18;4.50;;;6.10;99.90;;;;;;1913029;73;21079;-71
2020/12/15 08:39:00;;;;;;;8.93;4.45;;;6.00;99.90;;;;;;1911961;73;21137;-72
2020/12/15 08:41:26;;;;;;;9.20;5.30;;;6.00;99.90;;;;;;1911140;73;21140;-72
2020/12/15 08:43:53;;;;;;;21.10;6.25;;;6.00;99.90;;;;;;1885713;74;21091;-71
2020/12/15 08:46:19;;;;;;;11.97;5.47;;;6.00;99.90;;;;;;1903185;73;21043;-72
2020/12/15 08:48:45;;;;;;;9.03;4.87;;;6.00;99.90;;;;;;1909124;74;21086;-71
2020/12/15 08:51:12;;;;;;;9.05;4.67;;;6.10;99.90;;;;;;1904704;73;21087;-71
2020/12/15 08:53:38;;;;;;;17.75;4.92;;;6.00;99.90;;;;;;1913304;74;21144;-71
2020/12/15 08:56:04;;;;;;;12.47;5.22;;;6.10;99.90;;;;;;1908692;73;21221;-71
2020/12/15 08:58:30;;;;;;;11.50;3.87;;;6.10;99.90;;;;;;1901939;74;21071;-72
2020/12/15 09:00:58;;;;;;;12.98;5.10;;;6.10;99.90;;;;;;1906934;73;21050;-72
2020/12/15 09:03:24;;;;;;;9.88;5.17;;;6.10;99.90;;;;;;1902594;73;21118;-73
2020/12/15 09:05:50;;;;;;;12.50;5.10;;;6.10;99.90;;;;;;1905102;73;21091;-71
2020/12/15 09:08:16;;;;;;;7.67;4.90;;;6.20;99.90;;;;;;1899693;74;21141;-72
2020/12/15 09:10:43;;;;;;;10.30;5.10;;;6.10;99.90;;;;;;1899500;74;21082;-72
2020/12/15 09:13:09;;;;;;;8.05;4.85;;;6.20;99.90;;;;;;1893768;74;21544;-75
2020/12/15 09:15:36;;;;;;;12.30;4.83;;;6.20;99.90;;;;;;1899677;73;21141;-73
2020/12/15 09:18:02;;;;;;;12.25;5.50;;;6.20;99.90;;;;;;1893533;73;21082;-73
2020/12/15 09:20:28;;;;;;;7.60;4.65;;;6.20;99.90;;;;;;1896116;73;22540;-72
2020/12/15 09:22:55;;;;;;;8.30;5.20;;;6.20;99.90;;;;;;1910933;73;21271;-72
2020/12/15 09:25:21;;;;;;;16.20;5.87;;;6.20;99.90;;;;;;1899465;73;21070;-70
2020/12/15 09:27:47;;;;;;;11.63;5.37;;;6.30;99.90;;;;;;1897556;73;21083;-71
2020/12/15 09:30:13;;;;;;;12.35;6.42;;;6.40;99.90;;;;;;1906973;73;21144;-71
2020/12/15 09:32:41;;;;;;;14.20;5.33;;;6.40;99.90;;;;;;1900612;73;21081;-72
2020/12/15 09:35:07;;;;;;;11.08;5.55;;;6.40;99.90;;;;;;1905414;74;21054;-72
2020/12/15 09:37:35;;;;;;;11.73;4.83;;;6.50;99.90;;;;;;1908673;73;21082;-72
2020/12/15 09:40:01;;;;;;;17.62;6.00;;;6.50;99.90;;;;;;1905636;73;21147;-70
2020/12/15 09:42:30;;;;;;;13.50;5.17;;;6.50;99.90;;;;;;1895625;73;21145;-72
2020/12/15 09:44:55;;;;;;;7.75;4.30;;;6.50;99.90;;;;;;1903123;74;21169;-72
2020/12/15 09:47:21;;;;;;;9.68;4.70;;;6.60;99.90;;;;;;1905735;73;21082;-72
2020/12/15 09:49:47;;;;;;;10.25;5.35;;;6.70;99.90;;;;;;1898086;73;21048;-72
2020/12/15 09:52:13;;;;;;;9.23;5.17;;;6.70;99.90;;;;;;1896888;73;21156;-72
2020/12/15 09:54:40;;;;;;;9.78;5.00;;;6.70;99.90;;;;;;1886763;73;21081;-72
2020/12/15 09:57:06;;;;;;;13.38;5.60;;;6.70;99.90;;;;;;1898080;74;21668;-72
2020/12/15 09:59:32;;;;;;;14.65;6.37;;;6.80;99.90;;;;;;1908338;73;21082;-72
2020/12/15 10:01:59;;;;;;;10.18;5.40;;;6.80;99.90;;;;;;1900660;73;21079;-72
2020/12/15 10:04:25;;;;;;;16.65;5.47;;;6.90;99.90;;;;;;1888877;73;21144;-72
2020/12/15 10:06:51;;;;;;;9.65;5.22;;;7.00;99.90;;;;;;1900805;73;21129;-72
2020/12/15 10:09:17;;;;;;;8.80;4.75;;;6.90;99.90;;;;;;1906424;73;21155;-72
2020/12/15 10:11:43;;;;;;;13.40;5.55;;;6.90;99.90;;;;;;1891345;73;21173;-72
2020/12/15 10:14:09;;;;;;;10.80;4.78;;;6.90;99.90;;;;;;1907384;73;21077;-72
2020/12/15 10:16:35;;;;;;;14.87;5.83;;;7.00;99.90;;;;;;1910775;73;21044;-72
2020/12/15 10:19:01;;;;;;;12.95;5.87;;;7.10;99.90;;;;;;1910186;73;21165;-72
2020/12/15 10:21:27;;;;;;;12.20;5.90;;;7.10;99.90;;;;;;1889887;73;21140;-73
2020/12/15 10:23:54;;;;;;;10.08;6.08;;;7.10;99.90;;;;;;1889674;73;21134;-72
2020/12/15 10:26:20;;;;;;;11.33;5.92;;;7.20;99.90;;;;;;1898075;73;21481;-72
2020/12/15 10:28:46;;;;;;;12.78;5.72;;;7.20;99.90;;;;;;1907274;73;21151;-72
2020/12/15 10:31:12;;;;;;;11.25;5.33;;;7.30;99.90;;;;;;1896071;73;21050;-72
2020/12/15 10:33:39;;;;;;;9.98;5.40;;;7.30;99.90;;;;;;1903511;73;21118;-71
2020/12/15 10:36:05;;;;;;;17.45;6.00;;;7.10;99.90;;;;;;1890180;73;21077;-71
2020/12/15 10:38:31;;;;;;;12.35;5.87;;;7.10;99.90;;;;;;1904039;73;21185;-72
2020/12/15 10:40:57;;;;;;;10.75;5.47;;;7.20;99.90;;;;;;1896367;73;21086;-72
2020/12/15 10:43:23;;;;;;;19.80;5.37;;;7.30;99.90;;;;;;1898826;73;21059;-76
2020/12/15 10:45:50;;;;;;;14.87;5.05;;;7.50;99.90;;;;;;1900311;73;21060;-75
2020/12/15 10:48:16;;;;;;;17.12;6.28;;;7.50;99.90;;;;;;1903993;74;21159;-73
2020/12/15 10:50:42;;;;;;;10.48;5.22;;;7.70;99.90;;;;;;1897041;74;21077;-73
2020/12/15 10:53:10;;;;;;;13.58;4.65;;;7.80;99.90;;;;;;1885293;73;21155;-73
2020/12/15 10:55:36;;;;;;;12.35;5.08;;;7.80;99.90;;;;;;1893348;75;21694;-73
2020/12/15 10:58:02;;;;;;;8.95;4.35;;;8.00;99.90;;;;;;1907555;73;21445;-73
2020/12/15 11:00:28;;;;;;;8.38;4.67;;;8.20;99.90;;;;;;1897396;73;21075;-74
2020/12/15 11:02:54;;;;;;;10.50;5.17;;;8.20;99.90;;;;;;1893010;73;21077;-73
2020/12/15 11:05:20;;;;;;;8.98;4.83;;;8.20;99.90;;;;;;1896464;73;21191;-73
2020/12/15 11:07:46;;;;;;;13.62;5.22;;;8.40;99.90;;;;;;1895176;73;21201;-73
2020/12/15 11:10:13;;;;;;;11.73;4.55;;;8.30;99.90;;;;;;1892449;74;21130;-74
2020/12/15 11:12:39;;;;;;;10.03;4.25;;;8.40;99.90;;;;;;1883186;74;21046;-73
2020/12/15 11:15:05;;;;;;;16.90;5.03;;;8.40;99.90;;;;;;1883665;73;21054;-72
2020/12/15 11:17:31;;;;;;;14.38;4.78;;;8.40;99.90;;;;;;1903800;73;21071;-72
2020/12/15 11:20:00;;;;;;;9.20;4.25;;;8.40;99.90;;;;;;1911211;74;21086;-72
2020/12/15 11:22:26;;;;;;;8.55;4.60;;;8.40;99.90;;;;;;1925429;71;21223;-71
2020/12/15 11:24:52;;;;;;;8.25;4.80;;;8.50;99.90;;;;;;1945285;72;21043;-71
2020/12/15 11:27:19;;;;;;;10.05;4.47;;;8.50;99.90;;;;;;1929560;72;21069;-71
2020/12/15 11:29:45;;;;;;;16.37;3.77;;;8.50;99.90;;;;;;1956705;72;21535;-70
2020/12/15 11:32:11;;;;;;;11.20;4.17;;;8.70;99.90;;;;;;1950054;72;21530;-70
2020/12/15 11:34:37;;;;;;;13.15;4.87;;;8.70;99.90;;;;;;1970961;72;21413;-70
2020/12/15 11:37:05;;;;;;;6.05;3.83;;;8.70;99.90;;;;;;1946710;72;21478;-72
2020/12/15 11:39:31;;;;;;;10.40;4.12;;;8.60;99.90;;;;;;1895133;73;21212;-72
2020/12/15 11:41:57;;;;;;;7.12;3.58;;;8.60;99.90;;;;;;1959324;72;21166;-72
2020/12/15 11:44:23;;;;;;;11.43;4.33;;;8.70;99.90;;;;;;1958553;72;21133;-72
2020/12/15 11:46:49;;;;;;;11.65;4.80;;;8.90;99.90;;;;;;1962812;72;21074;-72
2020/12/15 11:49:15;;;;;;;10.75;4.80;;;9.00;99.90;;;;;;1900425;73;21459;-71
2020/12/15 11:51:41;;;;;;;15.15;4.08;;;9.00;99.90;;;;;;1948987;72;21513;-72
2020/12/15 11:54:07;;;;;;;9.85;3.70;;;9.10;99.90;;;;;;1901610;73;21559;-72
2020/12/15 11:56:33;;;;;;;7.37;3.40;;;9.00;99.90;;;;;;1963632;72;21478;-71
2020/12/15 11:59:00;;;;;;;6.97;4.08;;;9.00;99.90;;;;;;1976572;72;21059;-71
2020/12/15 12:01:26;;;;;;;9.33;3.60;;;8.80;99.90;;;;;;1963931;72;21031;-73
2020/12/15 12:03:52;;;;;;;14.10;3.72;;;8.80;99.90;;;;;;1958767;72;21131;-69
2020/12/15 12:06:18;;;;;;;5.60;3.77;;;8.80;99.90;;;;;;1942992;72;21064;-70
2020/12/15 12:08:44;;;;;;;5.53;3.40;;;8.90;99.90;;;;;;1933936;72;21065;-71
2020/12/15 12:11:11;;;;;;;7.30;3.55;;;8.90;99.90;;;;;;1951421;72;21067;-71
2020/12/15 12:13:37;;;;;;;6.65;3.62;;;8.80;99.90;;;;;;1948386;72;21074;-70
2020/12/15 12:16:04;;;;;;;8.28;3.72;;;8.80;99.90;;;;;;1930808;72;21124;-71
2020/12/15 12:18:30;;;;;;;10.00;4.35;;;8.80;99.90;;;;;;1950478;72;21086;-71
2020/12/15 12:20:56;;;;;;;8.33;4.03;;;8.90;99.90;;;;;;1954657;72;21470;-71
2020/12/15 12:23:22;;;;;;;7.17;4.03;;;9.00;99.90;;;;;;1948502;72;21435;-73
2020/12/15 12:25:48;;;;;;;8.20;4.05;;;9.00;99.90;;;;;;1951919;72;21493;-80
2020/12/15 12:28:14;;;;;;;11.20;4.05;;;9.00;99.90;;;;;;1946355;72;21541;-72
2020/12/15 12:30:41;;;;;;;10.00;3.50;;;9.00;99.90;;;;;;1952577;73;21241;-72
2020/12/15 12:33:07;;;;;;;13.40;4.75;;;8.90;99.90;;;;;;1940158;72;21062;-72
2020/12/15 12:35:33;;;;;;;8.60;4.45;;;8.90;99.90;;;;;;1945759;72;21157;-72
2020/12/15 12:37:59;;;;;;;7.55;4.42;;;8.90;99.90;;;;;;1943852;72;21063;-72
2020/12/15 12:40:25;;;;;;;12.05;4.75;;;8.90;99.90;;;;;;1942553;72;21136;-72
2020/12/15 12:42:51;;;;;;;12.98;5.08;;;9.00;99.90;;;;;;1935469;72;21069;-73
2020/12/15 12:45:18;;;;;;;11.03;5.15;;;8.80;99.90;;;;;;1948655;72;21432;-72
2020/12/15 12:47:44;;;;;;;14.07;5.40;;;8.90;99.90;;;;;;1950180;72;21064;-72